Pagrindinis puslapis
METAR-TAF:

METAR-TAF

Oro uostai :

Kolkata, Indija

platuma: 22-39N, ilguma: 088-27E, Aukštis: 4 m

Dabartinis oras

Ataskaita buvo paskelbta 39 minutes, ne 22:30 UTC
Ramus vėjas
Temperatūra 20°C
Drėgmė 88%
Slėgis 1012 hPa
Matomumas: 2600 m
migla

METAR: VECC 232230Z 00000KT 2600 HZ NSC 20/18 Q1012 NOSIG

Laikas: 04:39 (23:09 UTC)

Prognozė

Ataskaita buvo paskelbta 3 valandos ir 9 minutes, ne 20:00 UTC
Prognozė galioja nuo 23 metu 21 UTC su 24 metu 06 UTC
Vėjas 5 kt iš Pietų
Matomumas: 2800 m
Išsisklaidę debesys ne aukštis 2000 ft
migla
Tapsmas
nuo 24 metu 00 UTC su 24 metu 02 UTC
Vėjas kt iš Šiaurės
Matomumas: 1400 m
Išsisklaidę debesys ne aukštis 2000 ft
Su prošvaistėmis ne aukštis 10000 ft
rūkana
Tapsmas
nuo 24 metu 03 UTC su 24 metu 05 UTC
Vėjas 5 kt iš Šiaurės Rytų
Matomumas: 2400 m
Išsisklaidę debesys ne aukštis 1800 ft
Su prošvaistėmis ne aukštis 10000 ft
lietus, migla

TAF: VECC 232000Z 2321/2406 19005KT 2800 HZ SCT020 BECMG 2400/2402 00000KT 1400 BR SCT020 BKN100 BECMG 2403/2405 04005KT 2400 -RA HZ SCT018 BKN100

Orai ataskaitas ir orų prognozės (METAR, TAF).

turimą stotys yra geltonos ir raudonos taškus žemėlapyje.

Perkelti pele per norėdami pamatyti stoties vardą.

Tada spustelėkite, norėdami matyti oro stebėjimo ir prognozės.

Norėdami pakeisti žemėlapį: spustelėkite ant žalios mygtukų su juodo kryžiaus žemyn,; žalią mygtuką su brūkšneliu, jei norite nutolinti; arba žalių rodyklių gretimoms žemėlapius.


METAR-TAF: